Time;durP1;ratioP1;P1;durP2;ratioP2;P2;SDS_P1;SDS_P2;PMS_P1;PMS_P2;Temp;Humidity;BMP_temperature;BMP_pressure;BME280_temperature;BME280_humidity;BME280_pressure;Samples;Min_cycle;Max_cycle;Signal;HPM_P1;HPM_P2
2022/08/19 00:00:46;;;;;;;11.38;6.55;;;;;;;16.97;100.00;95076.66;5075212;28;20119;-76
2022/08/19 00:03:11;;;;;;;9.98;6.05;;;;;;;16.96;100.00;95084.97;5069480;28;20048;-76
2022/08/19 00:05:37;;;;;;;9.57;6.22;;;;;;;16.98;100.00;95093.38;5073033;28;20040;-75
2022/08/19 00:08:02;;;;;;;9.90;6.03;;;;;;;16.92;100.00;95078.72;5069902;28;20036;-76
2022/08/19 00:10:28;;;;;;;9.02;5.63;;;;;;;16.93;100.00;95069.66;5070851;28;20391;-76
2022/08/19 00:12:54;;;;;;;8.57;5.70;;;;;;;16.97;100.00;95070.59;5053909;28;20048;-76
2022/08/19 00:15:22;;;;;;;8.10;6.07;;;;;;;17.01;100.00;95058.22;5066136;28;20040;-76
2022/08/19 00:17:47;;;;;;;8.98;5.82;;;;;;;17.04;100.00;95048.78;5049574;28;20060;-76
2022/08/19 00:20:17;;;;;;;8.52;5.82;;;;;;;17.06;100.00;95047.38;5068820;28;20421;-75
2022/08/19 00:22:45;;;;;;;10.50;6.78;;;;;;;17.01;100.00;95044.94;5069558;28;20036;-76
2022/08/19 00:25:11;;;;;;;8.65;5.97;;;;;;;17.06;100.00;95042.06;5082981;28;20048;-76
2022/08/19 00:27:37;;;;;;;12.98;6.40;;;;;;;17.07;100.00;95033.00;5083179;28;20043;-76
2022/08/19 00:30:05;;;;;;;10.80;6.57;;;;;;;17.10;100.00;95027.03;5068044;28;20041;-76
2022/08/19 00:32:31;;;;;;;9.77;6.07;;;;;;;17.02;100.00;95030.50;5056078;28;20510;-76
2022/08/19 00:34:56;;;;;;;10.15;6.32;;;;;;;17.04;100.00;95033.66;5080958;28;20051;-76
2022/08/19 00:37:25;;;;;;;10.25;6.68;;;;;;;17.07;100.00;95033.00;5081811;28;20037;-77
2022/08/19 00:39:51;;;;;;;9.05;6.05;;;;;;;17.10;100.00;95031.59;5076423;28;20406;-76
2022/08/19 00:42:19;;;;;;;10.93;7.00;;;;;;;17.01;100.00;95026.31;5069559;28;20032;-76
2022/08/19 00:44:45;;;;;;;9.82;6.35;;;;;;;17.02;100.00;95025.19;5070392;28;20472;-75
2022/08/19 00:47:11;;;;;;;10.63;6.63;;;;;;;17.04;100.00;95025.66;5065184;28;20036;-76
2022/08/19 00:49:50;;;;;;;11.18;6.90;;;;;;;17.01;100.00;95013.03;5074178;28;20074;-76
2022/08/19 00:52:29;;;;;;;12.52;7.03;;;;;;;17.02;100.00;94998.63;5075985;28;20051;-76
2022/08/19 00:54:57;;;;;;;11.93;7.22;;;;;;;16.98;100.00;94989.72;5065257;28;20947;-76
2022/08/19 00:57:44;;;;;;;15.55;7.10;;;;;;;16.95;100.00;94987.72;5056717;28;20453;-76
2022/08/19 01:00:14;;;;;;;11.68;7.13;;;;;;;17.00;100.00;95000.06;5075791;28;20066;-76
2022/08/19 01:02:41;;;;;;;12.27;7.43;;;;;;;16.99;100.00;95015.22;5081290;28;20397;-75
2022/08/19 01:05:11;;;;;;;10.32;6.97;;;;;;;16.98;100.00;95013.66;5072239;28;20045;-76
2022/08/19 01:07:39;;;;;;;12.30;6.97;;;;;;;16.96;100.00;95000.69;5081203;28;20043;-75
2022/08/19 01:10:08;;;;;;;12.73;7.75;;;;;;;16.99;100.00;94993.94;5044497;28;20110;-75
2022/08/19 01:12:34;;;;;;;12.45;7.40;;;;;;;16.95;100.00;94982.41;5085341;28;20043;-76
2022/08/19 01:15:00;;;;;;;13.93;7.40;;;;;;;16.98;100.00;94989.72;5080882;28;20039;-76
2022/08/19 01:17:27;;;;;;;11.75;7.53;;;;;;;17.05;100.00;94982.03;5065729;28;20101;-76
2022/08/19 01:19:52;;;;;;;12.88;7.95;;;;;;;17.07;100.00;94985.16;5066316;28;20036;-76
2022/08/19 01:22:24;;;;;;;13.13;8.20;;;;;;;17.02;100.00;94998.63;5067872;28;20508;-76
2022/08/19 01:24:50;;;;;;;12.20;7.45;;;;;;;17.00;100.00;95011.47;5072938;28;20048;-75
2022/08/19 01:27:16;;;;;;;13.57;8.30;;;;;;;16.97;100.00;95007.56;5065120;28;20300;-75
2022/08/19 01:29:44;;;;;;;13.45;8.30;;;;;;;16.99;100.00;95025.06;5069835;28;20097;-76
2022/08/19 01:32:14;;;;;;;12.10;7.57;;;;;;;16.94;100.00;95032.13;5084726;28;20055;-76
2022/08/19 01:34:40;;;;;;;14.57;8.40;;;;;;;16.91;100.00;95042.63;5066155;28;20045;-76
2022/08/19 01:37:10;;;;;;;11.85;7.70;;;;;;;16.90;100.00;95049.06;5085660;28;20052;-76
2022/08/19 01:39:37;;;;;;;13.27;8.07;;;;;;;16.89;100.00;95042.16;5070082;28;20041;-76
2022/08/19 01:42:04;;;;;;;13.65;7.97;;;;;;;16.90;100.00;95038.41;5077585;28;20051;-77
2022/08/19 01:44:30;;;;;;;11.95;7.57;;;;;;;16.80;100.00;95039.53;5072717;28;20109;-76
2022/08/19 01:46:55;;;;;;;12.57;7.72;;;;;;;16.86;100.00;95042.78;5068843;28;20597;-75
2022/08/19 01:49:23;;;;;;;11.52;7.50;;;;;;;16.91;100.00;95045.28;5067682;28;20043;-76
2022/08/19 01:51:50;;;;;;;11.73;7.00;;;;;;;16.89;100.00;95050.13;5068770;28;20059;-76
2022/08/19 01:54:17;;;;;;;12.27;7.20;;;;;;;16.89;100.00;95064.19;5060357;28;20052;-76
2022/08/19 01:56:43;;;;;;;12.68;7.15;;;;;;;16.88;100.00;95061.84;5063029;28;20037;-76
2022/08/19 01:59:14;;;;;;;11.07;7.20;;;;;;;16.90;100.00;95049.81;5052110;28;20039;-77
2022/08/19 02:01:40;;;;;;;11.52;7.07;;;;;;;16.90;100.00;95038.41;5070350;28;20055;-76
2022/08/19 02:04:05;;;;;;;12.38;7.50;;;;;;;16.90;100.00;95041.06;5064173;28;20047;-76
2022/08/19 02:06:32;;;;;;;12.43;7.30;;;;;;;16.91;100.00;95050.59;5070771;28;20044;-76
2022/08/19 02:08:58;;;;;;;12.63;7.50;;;;;;;16.87;100.00;95039.03;5065695;28;20297;-75
2022/08/19 02:11:27;;;;;;;10.38;6.82;;;;;;;16.87;100.00;95047.00;5044342;28;20049;-76
2022/08/19 02:13:54;;;;;;;11.93;6.32;;;;;;;16.87;100.00;95062.94;5050209;28;20043;-75
2022/08/19 02:16:20;;;;;;;11.68;6.85;;;;;;;16.87;100.00;95060.28;5069941;28;20072;-76
2022/08/19 02:18:48;;;;;;;12.23;6.82;;;;;;;16.82;100.00;95073.75;5067555;28;20072;-76
2022/08/19 02:21:16;;;;;;;10.95;6.45;;;;;;;16.86;100.00;95069.34;5068679;28;20043;-76
2022/08/19 02:23:42;;;;;;;10.48;6.22;;;;;;;16.92;100.00;95062.78;5065478;28;20090;-76
2022/08/19 02:26:08;;;;;;;10.13;6.78;;;;;;;16.90;100.00;95065.75;5061289;28;20048;-76
2022/08/19 02:28:34;;;;;;;10.13;6.82;;;;;;;16.78;100.00;95074.38;5068069;28;20409;-76
2022/08/19 02:31:00;;;;;;;10.32;6.22;;;;;;;16.82;100.00;95068.44;5046574;28;20071;-77
2022/08/19 02:33:27;;;;;;;8.85;6.22;;;;;;;16.83;100.00;95067.34;5066852;28;20041;-76
2022/08/19 02:35:52;;;;;;;9.80;5.93;;;;;;;16.88;100.00;95061.84;5070140;28;20094;-76
2022/08/19 02:38:26;;;;;;;9.85;6.10;;;;;;;16.85;100.00;95049.19;5064997;28;20037;-76
2022/08/19 02:40:57;;;;;;;9.57;6.25;;;;;;;16.87;100.00;95029.19;5064575;28;20098;-77
2022/08/19 02:43:25;;;;;;;11.10;5.63;;;;;;;16.93;100.00;95016.50;5057093;28;20406;-76
2022/08/19 02:45:51;;;;;;;10.70;5.82;;;;;;;16.85;100.00;94993.38;5070076;28;20051;-76
2022/08/19 02:48:22;;;;;;;8.55;5.85;;;;;;;16.87;100.00;94991.97;5065169;28;20047;-78
2022/08/19 02:50:54;;;;;;;9.80;6.00;;;;;;;16.85;100.00;95001.34;5059869;28;20401;-79
2022/08/19 02:53:23;;;;;;;8.65;5.68;;;;;;;16.79;100.00;94996.25;5064917;28;20040;-79
2022/08/19 02:55:49;;;;;;;10.90;6.10;;;;;;;16.79;100.00;94990.13;5051074;28;20490;-76
2022/08/19 02:58:15;;;;;;;11.20;5.55;;;;;;;16.83;100.00;94991.06;5064288;28;20095;-75
2022/08/19 03:00:46;;;;;;;9.25;6.05;;;;;;;16.89;100.00;94997.00;5068853;28;20525;-76
2022/08/19 03:03:12;;;;;;;8.32;5.78;;;;;;;16.83;100.00;94992.94;5068450;28;20109;-75
2022/08/19 03:05:38;;;;;;;8.70;5.85;;;;;;;16.84;100.00;94991.81;5069355;28;20733;-76
2022/08/19 03:08:04;;;;;;;9.57;6.28;;;;;;;16.73;100.00;95008.13;5066743;28;20079;-76
2022/08/19 03:10:29;;;;;;;9.05;5.95;;;;;;;16.72;100.00;95006.59;5068232;28;20040;-76
2022/08/19 03:12:54;;;;;;;9.70;7.05;;;;;;;16.73;100.00;95015.34;5065686;28;20565;-76
2022/08/19 03:15:20;;;;;;;11.57;6.88;;;;;;;16.67;100.00;95012.06;5062485;28;20040;-76
2022/08/19 03:17:46;;;;;;;10.30;5.95;;;;;;;16.68;100.00;95011.00;5067881;28;20044;-76
2022/08/19 03:20:11;;;;;;;10.27;6.38;;;;;;;16.73;100.00;95002.81;5068451;28;20457;-76
2022/08/19 03:22:36;;;;;;;9.35;6.15;;;;;;;16.75;100.00;95027.22;5056997;28;20037;-76
2022/08/19 03:25:03;;;;;;;9.13;5.93;;;;;;;16.77;100.00;95035.63;5061080;28;20048;-76
2022/08/19 03:27:29;;;;;;;11.40;6.72;;;;;;;16.74;100.00;95041.59;5064649;28;20604;-76
2022/08/19 03:29:55;;;;;;;10.35;6.32;;;;;;;16.72;100.00;95027.84;5060305;28;20068;-76
2022/08/19 03:32:21;;;;;;;11.63;6.35;;;;;;;16.68;100.00;95026.94;5065571;28;20045;-76
2022/08/19 03:34:47;;;;;;;9.90;6.28;;;;;;;16.70;100.00;95023.94;5068386;28;20094;-76
2022/08/19 03:37:12;;;;;;;9.43;6.05;;;;;;;16.72;100.00;95022.53;5050500;28;20037;-75
2022/08/19 03:39:39;;;;;;;10.38;6.38;;;;;;;16.71;100.00;95023.63;5072125;28;20107;-76
2022/08/19 03:42:05;;;;;;;9.27;6.03;;;;;;;16.72;100.00;95022.53;5066636;28;20502;-75
2022/08/19 03:44:32;;;;;;;9.93;6.25;;;;;;;16.75;100.00;95027.22;5067065;28;20052;-76
2022/08/19 03:46:59;;;;;;;10.13;6.38;;;;;;;16.78;100.00;95026.56;5068289;28;20089;-75
2022/08/19 03:49:27;;;;;;;11.95;6.53;;;;;;;16.67;100.00;95025.38;5066200;28;20036;-76
2022/08/19 03:51:54;;;;;;;8.85;6.00;;;;;;;16.78;100.00;95031.88;5059187;28;20041;-76
2022/08/19 03:54:22;;;;;;;11.63;6.32;;;;;;;16.76;100.00;95034.06;5067294;28;20688;-76
2022/08/19 03:56:50;;;;;;;9.02;6.00;;;;;;;16.79;100.00;95022.81;5066035;28;20032;-76
2022/08/19 03:59:20;;;;;;;11.18;6.40;;;;;;;16.82;100.00;95020.59;5066828;28;20118;-76
2022/08/19 04:01:46;;;;;;;10.07;5.95;;;;;;;16.77;100.00;95025.00;5067196;28;20045;-76
2022/08/19 04:04:12;;;;;;;9.43;5.97;;;;;;;16.84;100.00;95018.41;5067280;28;20058;-76
2022/08/19 04:06:39;;;;;;;11.00;6.25;;;;;;;16.82;100.00;95020.59;5064465;28;20045;-75
2022/08/19 04:09:08;;;;;;;9.23;5.97;;;;;;;16.82;100.00;95021.38;5051005;28;20041;-76
2022/08/19 04:11:42;;;;;;;8.93;6.05;;;;;;;16.88;100.00;95014.81;5057722;28;20049;-75
2022/08/19 04:14:09;;;;;;;;;;;;;;;16.87;100.00;95018.53;5068752;28;20032;-76
2022/08/19 04:16:34;;;;;;;9.70;6.00;;;;;;;16.90;100.00;95022.47;5054036;28;20307;-76
2022/08/19 04:19:02;;;;;;;8.77;5.50;;;;;;;16.93;100.00;95032.47;5070720;28;20052;-76
2022/08/19 04:21:28;;;;;;;8.13;5.60;;;;;;;16.92;100.00;95036.22;5069259;28;20040;-76
2022/08/19 04:23:55;;;;;;;9.73;6.05;;;;;;;16.89;100.00;95031.53;5067403;28;20040;-76
2022/08/19 04:26:24;;;;;;;10.57;5.78;;;;;;;16.89;100.00;95015.59;5072335;28;20440;-76
2022/08/19 04:28:51;;;;;;;11.38;6.32;;;;;;;16.86;100.00;95026.84;5051737;28;20045;-76
2022/08/19 04:31:25;;;;;;;8.57;5.70;;;;;;;16.87;100.00;95039.81;5072703;28;20047;-76
2022/08/19 04:33:56;;;;;;;9.35;5.90;;;;;;;16.86;100.00;95043.56;5066436;28;20090;-76
2022/08/19 04:36:27;;;;;;;11.05;5.80;;;;;;;16.91;100.00;95053.25;5068763;28;20076;-76
2022/08/19 04:38:55;;;;;;;8.88;5.82;;;;;;;16.87;100.00;95055.75;5061337;28;20040;-76
2022/08/19 04:44:06;;;;;;;9.70;5.85;;;;;;;16.84;100.00;95060.91;5062297;28;20048;-76
2022/08/19 04:46:33;;;;;;;9.70;6.15;;;;;;;16.87;100.00;95070.94;5072613;28;20040;-76
2022/08/19 04:49:00;;;;;;;10.93;5.85;;;;;;;16.84;100.00;95066.22;5066221;28;20044;-76
2022/08/19 04:51:26;;;;;;;12.55;5.70;;;;;;;16.85;100.00;95067.78;5068656;28;20036;-76
2022/08/19 04:53:52;;;;;;;8.27;5.55;;;;;;;16.84;100.00;95076.84;5043302;28;20037;-76
2022/08/19 04:56:22;;;;;;;8.70;5.45;;;;;;;16.89;100.00;95074.81;5064473;28;20048;-76
2022/08/19 04:58:50;;;;;;;9.52;5.63;;;;;;;16.86;100.00;95085.31;5071423;28;20071;-76
2022/08/19 05:01:28;;;;;;;8.98;5.05;;;;;;;16.88;100.00;95083.13;5068034;28;20076;-76
2022/08/19 05:03:54;;;;;;;8.88;5.53;;;;;;;16.87;100.00;95086.88;5057230;28;20108;-76
2022/08/19 05:06:21;;;;;;;8.80;5.35;;;;;;;16.87;100.00;95082.31;5050743;28;20048;-76
2022/08/19 05:08:47;;;;;;;8.68;5.00;;;;;;;16.83;100.00;95083.28;5050526;28;20509;-76
2022/08/19 05:11:20;;;;;;;8.30;5.50;;;;;;;16.76;100.00;95100.50;5065558;28;20033;-76
2022/08/19 05:13:46;;;;;;;10.68;5.47;;;;;;;16.78;100.00;95106.28;5070169;28;20124;-76
2022/08/19 05:16:13;;;;;;;10.25;5.30;;;;;;;16.87;100.00;95092.19;5069231;28;20123;-76
2022/08/19 05:24:09;;;;;;;7.60;5.07;;;;;;;16.95;100.00;95094.03;5068074;28;20041;-76
2022/08/19 05:26:36;;;;;;;8.35;5.60;;;;;;;16.96;100.00;95084.97;5074240;28;20774;-76
2022/08/19 05:29:03;;;;;;;7.40;5.05;;;;;;;16.87;100.00;95065.59;5054950;28;20550;-76
2022/08/19 05:31:29;;;;;;;7.47;4.95;;;;;;;16.97;100.00;95065.28;5062185;28;20113;-76
2022/08/19 05:33:55;;;;;;;8.85;5.25;;;;;;;16.98;100.00;95066.81;5067906;28;20483;-77
2022/08/19 05:36:21;;;;;;;9.82;5.30;;;;;;;16.94;100.00;95061.38;5070734;28;21637;-77
2022/08/19 05:38:47;;;;;;;8.15;5.55;;;;;;;16.99;100.00;95065.72;5069151;28;20051;-76
2022/08/19 05:41:14;;;;;;;9.68;5.65;;;;;;;17.02;100.00;95062.41;5070166;28;20114;-76
2022/08/19 05:43:40;;;;;;;8.70;6.22;;;;;;;16.99;100.00;95057.75;5070004;28;20040;-77
2022/08/19 05:46:07;;;;;;;11.00;6.30;;;;;;;17.02;100.00;95061.66;5072208;28;20102;-77
2022/08/19 05:48:34;;;;;;;10.60;6.20;;;;;;;17.11;100.00;95065.81;5055947;28;20037;-76
2022/08/19 05:51:07;;;;;;;10.65;6.47;;;;;;;17.12;100.00;95064.72;5057967;28;20058;-76
2022/08/19 05:53:34;;;;;;;11.00;6.40;;;;;;;17.16;100.00;95056.09;5058267;28;20040;-76
2022/08/19 05:56:07;;;;;;;11.63;7.25;;;;;;;17.16;100.00;95056.09;5063120;28;20040;-76
2022/08/19 05:58:35;;;;;;;11.68;7.20;;;;;;;17.20;100.00;95070.31;5062419;28;20164;-76
2022/08/19 06:01:05;;;;;;;12.18;7.20;;;;;;;17.29;100.00;95071.03;5059565;28;20040;-75
2022/08/19 06:03:33;;;;;;;14.75;8.55;;;;;;;17.24;100.00;95071.19;5061114;28;20041;-76
2022/08/19 06:05:59;;;;;;;11.20;7.25;;;;;;;17.29;100.00;95071.03;5066392;28;20566;-75
2022/08/19 06:08:26;;;;;;;13.73;7.65;;;;;;;17.22;100.00;95066.22;5060631;28;20037;-76
2022/08/19 06:10:52;;;;;;;16.63;8.73;;;;;;;17.28;100.00;95064.13;5068681;28;20513;-76
2022/08/19 06:13:19;;;;;;;13.57;8.75;;;;;;;17.25;100.00;95070.88;5061411;28;20041;-76
2022/08/19 06:15:46;;;;;;;13.13;8.30;;;;;;;17.21;100.00;95085.16;5050891;28;20528;-76
2022/08/19 06:18:13;;;;;;;15.18;8.57;;;;;;;17.12;100.00;95078.03;5064672;28;20037;-76
2022/08/19 06:20:40;;;;;;;14.85;8.80;;;;;;;17.12;100.00;95083.34;5066850;28;20048;-76
2022/08/19 06:23:06;;;;;;;15.27;8.77;;;;;;;17.12;100.00;95090.50;5052737;28;20068;-76
2022/08/19 06:25:32;;;;;;;13.50;8.63;;;;;;;17.08;100.00;95093.03;5067749;28;20075;-76
2022/08/19 06:27:57;;;;;;;14.82;8.90;;;;;;;17.07;100.00;95088.81;5051369;28;20570;-76
2022/08/19 06:30:23;;;;;;;17.08;9.25;;;;;;;17.05;100.00;95088.38;5067612;28;20040;-76
2022/08/19 06:32:48;;;;;;;16.55;9.35;;;;;;;16.96;100.00;95080.41;5050117;28;20044;-75
2022/08/19 06:35:14;;;;;;;18.30;9.25;;;;;;;16.95;100.00;95072.78;5068299;28;20048;-77
2022/08/19 06:37:40;;;;;;;15.60;9.02;;;;;;;16.92;100.00;95076.06;5063436;28;20140;-76
2022/08/19 06:40:08;;;;;;;17.20;9.88;;;;;;;16.87;100.00;95073.59;5041812;28;20043;-76
2022/08/19 06:42:34;;;;;;;22.73;10.45;;;;;;;16.91;100.00;95071.84;5065682;28;20033;-77
2022/08/19 06:45:03;;;;;;;17.17;10.40;;;;;;;16.91;100.00;95074.50;5052588;28;20588;-78
2022/08/19 06:47:30;;;;;;;17.83;10.30;;;;;;;16.86;100.00;95074.66;5053223;28;20108;-77
2022/08/19 06:50:01;;;;;;;16.98;10.93;;;;;;;16.88;100.00;95078.59;5070575;28;20048;-76
2022/08/19 06:52:27;;;;;;;21.02;11.70;;;;;;;16.91;100.00;95077.97;5050080;28;20040;-77
2022/08/19 06:54:54;;;;;;;22.35;11.25;;;;;;;16.95;100.00;95078.09;5070644;28;20375;-76
2022/08/19 06:57:19;;;;;;;23.25;12.30;;;;;;;17.01;100.00;95076.81;5052237;28;20041;-76
2022/08/19 06:59:45;;;;;;;22.58;12.70;;;;;;;17.05;100.00;95069.78;5053549;28;20051;-77
2022/08/19 07:02:10;;;;;;;22.00;12.15;;;;;;;17.03;100.00;95063.97;5063489;28;20044;-77
2022/08/19 07:04:38;;;;;;;26.42;13.90;;;;;;;17.09;100.00;95068.00;5072297;28;20045;-76
2022/08/19 07:07:09;;;;;;;26.65;14.18;;;;;;;17.19;100.00;95066.09;5071519;28;20044;-76
2022/08/19 07:09:38;;;;;;;28.25;14.20;;;;;;;17.17;100.00;95068.28;5070527;28;20402;-77
2022/08/19 07:12:06;;;;;;;23.27;13.88;;;;;;;17.22;100.00;95066.22;5062311;28;20147;-78
2022/08/19 07:14:36;;;;;;;24.63;13.57;;;;;;;17.31;100.00;95063.50;5052347;28;20429;-81
2022/08/19 07:17:03;;;;;;;23.42;13.68;;;;;;;17.24;100.00;95063.22;5068538;28;20120;-80
2022/08/19 07:19:29;;;;;;;24.52;13.75;;;;;;;17.23;100.00;95051.06;5066528;28;20047;-80
2022/08/19 07:21:55;;;;;;;22.92;13.40;;;;;;;17.37;100.00;95046.25;5068452;28;20079;-78
2022/08/19 07:24:25;;;;;;;29.05;15.65;;;;;;;17.40;100.00;95037.63;5067964;28;20036;-81
2022/08/19 07:26:56;;;;;;;26.27;15.35;;;;;;;17.49;100.00;95033.00;5051694;28;20041;-77
2022/08/19 07:29:24;;;;;;;26.80;15.32;;;;;;;17.52;100.00;95031.59;5047600;28;20116;-79
2022/08/19 07:31:50;;;;;;;25.55;14.90;;;;;;;17.58;100.00;95029.50;5064054;28;20090;-80
2022/08/19 07:34:17;;;;;;;24.67;14.30;;;;;;;17.61;100.00;95028.84;5068520;28;20044;-78
2022/08/19 07:36:43;;;;;;;26.33;14.88;;;;;;;17.68;100.00;95029.09;5067224;28;20047;-78
2022/08/19 07:39:16;;;;;;;25.48;14.95;;;;;;;17.74;100.00;95027.81;5069594;28;20406;-80
2022/08/19 07:41:42;;;;;;;27.13;14.98;;;;;;;17.73;100.00;95034.25;5074211;28;20037;-77
2022/08/19 07:44:09;;;;;;;24.85;14.18;;;;;;;17.76;100.00;95036.25;5074114;28;20105;-77
2022/08/19 07:46:37;;;;;;;25.33;14.65;;;;;;;17.80;100.00;95045.13;5060082;28;20051;-78
2022/08/19 07:49:03;;;;;;;24.60;14.70;;;;;;;17.70;100.00;95045.53;5078650;28;20106;-78
2022/08/19 07:51:29;;;;;;;26.30;15.70;;;;;;;17.75;100.00;95045.31;5068657;28;20044;-77
2022/08/19 07:53:55;;;;;;;24.60;14.38;;;;;;;17.80;100.00;95053.13;5083367;28;20032;-77
2022/08/19 07:56:21;;;;;;;29.17;15.60;;;;;;;17.87;100.00;95049.16;5079301;28;20051;-77
2022/08/19 07:58:49;;;;;;;27.33;15.75;;;;;;;17.99;100.00;95049.22;5069014;28;20040;-79
2022/08/19 08:01:19;;;;;;;29.50;15.60;;;;;;;18.00;100.00;95053.44;5073267;28;20110;-78
2022/08/19 08:11:48;;;;;;;26.00;16.17;;;;;;;17.81;100.00;95065.34;5069508;28;20041;-79
2022/08/19 08:14:20;;;;;;;28.90;16.85;;;;;;;17.73;100.00;95068.84;5062460;28;20058;-78
2022/08/19 08:16:45;;;;;;;31.75;16.90;;;;;;;17.70;100.00;95068.69;5068445;28;20047;-78
2022/08/19 08:19:14;;;;;;;31.33;17.98;;;;;;;17.69;100.00;95067.94;5068779;28;21111;-78
2022/08/19 08:21:41;;;;;;;32.08;18.40;;;;;;;17.64;100.00;95068.13;5069132;28;20082;-77
2022/08/19 08:24:07;;;;;;;32.42;17.63;;;;;;;17.64;100.00;95065.44;5070379;28;20045;-77
2022/08/19 08:26:32;;;;;;;30.80;17.10;;;;;;;17.63;100.00;95063.91;5068977;28;20040;-77
2022/08/19 08:28:58;;;;;;;35.40;17.83;;;;;;;17.69;100.00;95067.16;5048510;28;20413;-77
2022/08/19 08:31:24;;;;;;;26.67;15.93;;;;;;;17.63;100.00;95077.22;5068944;28;20486;-78
2022/08/19 08:33:49;;;;;;;32.30;17.30;;;;;;;17.58;100.00;95082.72;5071105;28;20059;-78
2022/08/19 08:36:15;;;;;;;30.75;15.88;;;;;;;17.48;100.00;95070.56;5059619;28;20606;-80
2022/08/19 08:38:45;;;;;;;29.95;17.50;;;;;;;17.47;100.00;95072.47;5061738;28;20048;-81
2022/08/19 08:41:21;;;;;;;29.58;17.40;;;;;;;17.46;100.00;95086.88;5074882;28;20128;-80
2022/08/19 08:43:51;;;;;;;27.13;15.50;;;;;;;17.44;100.00;95090.94;5060450;28;20093;-79
2022/08/19 08:46:45;;;;;;;31.33;16.15;;;;;;;17.46;100.00;95092.19;5075235;28;20497;-82
2022/08/19 08:49:39;;;;;;;31.40;17.73;;;;;;;17.43;100.00;95092.84;5042868;28;20503;-79
2022/08/19 08:52:26;;;;;;;31.25;17.30;;;;;;;17.39;100.00;95088.50;5071476;28;20315;-79
2022/08/19 08:54:58;;;;;;;31.40;17.75;;;;;;;17.47;100.00;95096.41;5068780;28;20048;-78
2022/08/19 08:57:46;;;;;;;31.00;17.27;;;;;;;17.43;100.00;95098.16;5071384;28;20045;-84
2022/08/19 09:00:20;;;;;;;33.63;17.70;;;;;;;17.43;100.00;95100.81;5071647;28;20097;-79
2022/08/19 09:02:46;;;;;;;29.45;16.73;;;;;;;17.38;100.00;95101.00;5076091;28;21310;-80
2022/08/19 09:05:14;;;;;;;34.53;17.20;;;;;;;17.38;100.00;95111.63;5078277;28;20071;-80
2022/08/19 09:08:08;;;;;;;31.05;17.02;;;;;;;17.40;100.00;95109.44;5078205;28;20047;-79
2022/08/19 09:10:38;;;;;;;32.20;17.10;;;;;;;17.40;100.00;95103.34;5063986;28;20048;-80
2022/08/19 09:13:18;;;;;;;32.17;17.17;;;;;;;17.39;100.00;95105.22;5066740;28;20040;-80
2022/08/19 09:15:51;;;;;;;36.30;17.70;;;;;;;17.43;100.00;95103.47;5080343;28;20486;-81
2022/08/19 09:18:16;;;;;;;37.55;18.38;;;;;;;17.47;100.00;95109.72;5079325;28;20605;-81
2022/08/19 09:20:42;;;;;;;36.45;18.73;;;;;;;17.42;100.00;95104.56;5059762;28;20032;-78
2022/08/19 09:23:10;;;;;;;34.15;18.25;;;;;;;17.39;100.00;95097.25;5072383;28;20044;-79
2022/08/19 09:25:36;;;;;;;31.10;16.65;;;;;;;17.41;100.00;95097.72;5057117;28;20040;-79
2022/08/19 09:28:03;;;;;;;36.63;17.17;;;;;;;17.42;100.00;95099.25;5063499;28;20051;-80
2022/08/19 09:30:32;;;;;;;34.10;17.80;;;;;;;17.52;100.00;95100.00;5047840;28;20040;-80
2022/08/19 09:32:58;;;;;;;31.95;17.67;;;;;;;17.50;100.00;95100.31;5055943;28;20033;-79
2022/08/19 09:35:27;;;;;;;33.75;18.13;;;;;;;17.48;100.00;95100.63;5057313;28;20041;-80
2022/08/19 09:37:53;;;;;;;35.83;17.77;;;;;;;17.63;100.00;95107.25;5050636;28;20411;-79
2022/08/19 09:40:19;;;;;;;27.77;16.58;;;;;;;17.63;100.00;95095.84;5071289;28;20037;-79
2022/08/19 09:42:47;;;;;;;29.55;15.80;;;;;;;17.65;100.00;95093.63;5066570;28;20047;-79
2022/08/19 09:45:20;;;;;;;29.40;16.27;;;;;;;17.69;100.00;95094.53;5071550;28;20044;-79
2022/08/19 09:47:45;;;;;;;32.78;16.10;;;;;;;17.61;100.00;95087.38;5057801;28;20048;-79
2022/08/19 09:50:12;;;;;;;30.38;17.40;;;;;;;17.66;100.00;95095.19;5070270;28;20537;-79
2022/08/19 09:52:38;;;;;;;26.52;15.85;;;;;;;17.67;100.00;95094.09;5071762;28;20506;-79
2022/08/19 09:55:05;;;;;;;32.88;16.73;;;;;;;17.77;100.00;95101.69;5068329;28;20102;-78
2022/08/19 09:57:31;;;;;;;28.70;15.88;;;;;;;17.77;100.00;95099.03;5053202;28;20128;-79
2022/08/19 09:59:57;;;;;;;31.67;16.17;;;;;;;17.89;100.00;95108.19;5058010;28;20461;-79
2022/08/19 10:02:22;;;;;;;32.47;16.35;;;;;;;17.97;100.00;95104.66;5059396;28;20041;-79
2022/08/19 10:07:32;;;;;;;27.63;14.77;;;;;;;18.03;100.00;95103.38;5051704;28;20048;-79
2022/08/19 10:09:58;;;;;;;30.73;16.27;;;;;;;18.09;100.00;95102.06;5055015;28;20045;-80
2022/08/19 10:12:23;;;;;;;29.45;15.90;;;;;;;18.27;100.00;95112.56;5038110;28;20033;-79
2022/08/19 10:14:50;;;;;;;31.73;16.38;;;;;;;18.31;100.00;95108.13;5051350;28;20133;-78
2022/08/19 10:17:17;;;;;;;30.40;15.95;;;;;;;18.39;100.00;95109.94;5068314;28;20044;-78
2022/08/19 10:19:43;;;;;;;32.78;17.10;;;;;;;18.55;100.00;95106.63;5058738;28;20124;-78
2022/08/19 10:22:10;;;;;;;33.13;16.67;;;;;;;18.85;100.00;95105.34;5057272;28;20036;-77
2022/08/19 10:24:36;;;;;;;28.45;15.52;;;;;;;18.71;100.00;95096.91;5057347;28;20033;-78
2022/08/19 10:27:05;;;;;;;27.25;14.88;;;;;;;18.65;100.00;95100.91;5057326;28;20044;-78
2022/08/19 10:29:31;;;;;;;32.55;16.90;;;;;;;18.73;100.00;95102.66;5050020;28;20041;-79
2022/08/19 10:31:59;;;;;;;29.70;16.45;;;;;;;18.82;100.00;95090.03;5060665;28;20059;-77
2022/08/19 10:34:25;;;;;;;35.13;16.48;;;;;;;19.09;100.00;95093.16;5069780;28;20044;-78
2022/08/19 10:36:51;;;;;;;29.48;15.68;;;;;;;19.43;100.00;95088.47;5064331;28;20044;-76
2022/08/19 10:39:17;;;;;;;28.15;15.68;;;;;;;19.59;100.00;95087.78;5045006;28;20414;-78
2022/08/19 10:41:43;;;;;;;23.23;13.02;;;;;;;19.64;100.00;95090.19;5062100;28;20490;-79
2022/08/19 10:44:11;;;;;;;24.10;13.50;;;;;;;19.56;100.00;95082.00;5069952;28;20052;-78
2022/08/19 10:46:41;;;;;;;24.00;13.00;;;;;;;19.59;100.00;95083.22;5066637;28;20041;-77
2022/08/19 10:49:09;;;;;;;20.02;11.50;;;;;;;19.53;100.00;95092.56;5062820;28;20048;-76
2022/08/19 10:54:19;;;;;;;;;;;;;;;20.67;100.00;95090.72;5069993;28;20043;-77
2022/08/19 10:56:51;;;;;;;25.58;11.23;;;;;;;20.78;100.00;95086.41;5073017;28;19924;-76
2022/08/19 10:59:23;;;;;;;17.52;10.75;;;;;;;21.27;100.00;95086.00;5067981;28;20441;-77
2022/08/19 11:01:50;;;;;;;13.88;9.35;;;;;;;20.74;100.00;95090.88;5086959;28;20528;-77
2022/08/19 11:04:17;;;;;;;15.35;9.00;;;;;;;20.62;100.00;95090.94;5064897;28;20083;-77
2022/08/19 11:06:47;;;;;;;14.02;9.10;;;;;;;20.49;100.00;95085.66;5071657;28;20048;-77
2022/08/19 11:09:24;;;;;;;14.63;9.00;;;;;;;20.03;100.00;95079.91;5077854;28;20165;-77
2022/08/19 11:11:50;;;;;;;13.30;9.05;;;;;;;20.00;100.00;95080.56;5063451;28;20438;-77
2022/08/19 11:14:19;;;;;;;14.35;7.70;;;;;;;19.99;100.00;95079.78;5073708;28;20506;-77
2022/08/19 11:16:45;;;;;;;12.40;7.72;;;;;;;19.94;100.00;95076.56;5055903;28;20128;-77
2022/08/19 11:19:12;;;;;;;13.13;7.85;;;;;;;20.02;100.00;95073.00;5077982;28;20123;-77
2022/08/19 11:21:42;;;;;;;11.23;8.15;;;;;;;20.03;100.00;95074.56;5055427;28;20037;-77
2022/08/19 11:24:10;;;;;;;11.30;7.93;;;;;;;20.12;100.00;95069.81;5074525;28;20040;-78
2022/08/19 11:26:37;;;;;;;11.05;7.80;;;;;;;20.10;100.00;95080.09;5067919;28;20050;-76
2022/08/19 11:29:04;;;;;;;10.82;7.35;;;;;;;20.27;100.00;95078.22;5067405;28;20101;-77
2022/08/19 11:31:31;;;;;;;11.02;7.13;;;;;;;20.21;100.00;95075.81;5068110;28;20051;-77
2022/08/19 11:33:59;;;;;;;10.35;6.90;;;;;;;20.12;100.00;95072.50;5065845;28;20045;-77
2022/08/19 11:36:25;;;;;;;11.35;7.47;;;;;;;20.06;100.00;95074.63;5066249;28;20032;-77
2022/08/19 11:38:52;;;;;;;11.18;7.28;;;;;;;19.94;100.00;95073.91;5058241;28;20041;-79
2022/08/19 11:41:19;;;;;;;13.85;8.75;;;;;;;19.84;100.00;95073.28;5051179;28;20125;-79